Time;durP1;ratioP1;P1;durP2;ratioP2;P2;SDS_P1;SDS_P2;PMS_P1;PMS_P2;Temp;Humidity;BMP_temperature;BMP_pressure;BME280_temperature;BME280_humidity;BME280_pressure;Samples;Min_cycle;Max_cycle;Signal;HPM_P1;HPM_P2
2021/11/11 00:01:49;;;;;;;64.60;23.77;;;;;;;;;;5064188;28;20143;-73
2021/11/11 00:04:19;;;;;;;54.67;22.77;;;;;;;;;;5065018;28;20126;-73
2021/11/11 00:06:47;;;;;;;66.97;23.92;;;;;;;;;;5047054;28;20128;-73
2021/11/11 00:09:14;;;;;;;60.05;22.10;;;;;;;;;;5046290;28;20088;-73
2021/11/11 00:11:42;;;;;;;56.70;22.73;;;;;;;;;;5065487;28;20791;-73
2021/11/11 00:14:10;;;;;;;52.88;22.77;;;;;;;;;;5047056;28;20110;-73
2021/11/11 00:16:37;;;;;;;69.28;22.85;;;;;;;;;;5059067;28;20139;-73
2021/11/11 00:19:04;;;;;;;65.60;23.50;;;;;;;;;;5041188;28;20049;-73
2021/11/11 00:21:31;;;;;;;57.65;22.58;;;;;;;;;;5045920;28;20077;-73
2021/11/11 00:23:58;;;;;;;64.25;23.00;;;;;;;;;;5050950;28;20131;-73
2021/11/11 00:26:25;;;;;;;58.88;23.20;;;;;;;;;;5065369;28;20128;-73
2021/11/11 00:28:52;;;;;;;54.08;22.20;;;;;;;;;;5059961;28;20504;-73
2021/11/11 00:31:20;;;;;;;59.65;22.00;;;;;;;;;;5065868;28;20147;-72
2021/11/11 00:33:47;;;;;;;64.05;22.27;;;;;;;;;;5064999;28;20121;-73
2021/11/11 00:36:14;;;;;;;49.75;21.25;;;;;;;;;;5045744;28;20059;-73
2021/11/11 00:38:42;;;;;;;59.70;22.02;;;;;;;;;;5043835;28;20108;-73
2021/11/11 00:41:10;;;;;;;67.03;23.20;;;;;;;;;;5047059;28;20080;-73
2021/11/11 00:43:38;;;;;;;59.47;23.05;;;;;;;;;;5053660;28;20759;-73
2021/11/11 00:46:05;;;;;;;63.28;21.50;;;;;;;;;;5065245;28;20552;-73
2021/11/11 00:48:33;;;;;;;58.58;22.13;;;;;;;;;;5064847;28;20059;-73
2021/11/11 00:51:00;;;;;;;55.65;22.70;;;;;;;;;;5065385;28;20627;-73
2021/11/11 00:53:27;;;;;;;66.55;23.35;;;;;;;;;;5047312;28;20091;-73
2021/11/11 00:55:54;;;;;;;61.20;21.83;;;;;;;;;;5065199;28;20052;-73
2021/11/11 00:58:21;;;;;;;56.20;22.02;;;;;;;;;;5032170;28;20131;-73
2021/11/11 01:00:49;;;;;;;50.65;20.17;;;;;;;;;;5047069;28;20168;-74
2021/11/11 01:03:19;;;;;;;62.42;20.55;;;;;;;;;;5046252;28;20131;-73
2021/11/11 01:05:46;;;;;;;70.38;22.70;;;;;;;;;;5065154;28;20058;-73
2021/11/11 01:08:13;;;;;;;69.65;21.95;;;;;;;;;;5064414;28;20052;-73
2021/11/11 01:10:41;;;;;;;66.03;22.35;;;;;;;;;;5064069;28;20135;-73
2021/11/11 01:13:08;;;;;;;50.03;20.65;;;;;;;;;;5065742;28;20174;-73
2021/11/11 01:15:35;;;;;;;69.75;22.48;;;;;;;;;;5049690;28;20132;-73
2021/11/11 01:18:06;;;;;;;58.58;21.45;;;;;;;;;;5048642;28;20113;-73
2021/11/11 01:20:34;;;;;;;60.60;22.02;;;;;;;;;;5030577;28;20051;-73
2021/11/11 01:23:01;;;;;;;58.65;20.75;;;;;;;;;;5048920;28;20164;-73
2021/11/11 01:25:32;;;;;;;54.17;20.98;;;;;;;;;;5049953;28;20107;-73
2021/11/11 01:27:59;;;;;;;63.40;20.38;;;;;;;;;;5067069;28;20477;-73
2021/11/11 01:30:26;;;;;;;60.35;21.67;;;;;;;;;;5050137;28;20139;-73
2021/11/11 01:32:53;;;;;;;62.50;23.08;;;;;;;;;;5068605;28;20048;-73
2021/11/11 01:35:21;;;;;;;65.07;21.92;;;;;;;;;;5049979;28;20088;-73
2021/11/11 01:37:48;;;;;;;54.67;20.63;;;;;;;;;;5067674;28;20587;-73
2021/11/11 01:40:16;;;;;;;62.75;21.50;;;;;;;;;;5060003;28;20488;-73
2021/11/11 01:42:51;;;;;;;54.55;20.90;;;;;;;;;;5066712;28;20465;-73
2021/11/11 01:45:18;;;;;;;61.42;22.30;;;;;;;;;;5068499;28;20182;-73
2021/11/11 01:47:45;;;;;;;63.17;22.27;;;;;;;;;;5067253;28;20161;-73
2021/11/11 01:50:13;;;;;;;70.60;23.30;;;;;;;;;;5067543;28;20147;-73
2021/11/11 01:52:41;;;;;;;71.47;22.40;;;;;;;;;;5051770;28;20048;-73
2021/11/11 01:55:08;;;;;;;66.45;23.55;;;;;;;;;;5062499;28;20052;-73
2021/11/11 01:57:35;;;;;;;71.25;23.30;;;;;;;;;;5065099;28;20810;-73
2021/11/11 02:00:08;;;;;;;62.05;22.40;;;;;;;;;;5067765;28;20063;-73
2021/11/11 02:02:36;;;;;;;70.97;21.88;;;;;;;;;;5066983;28;20726;-73
2021/11/11 02:05:03;;;;;;;70.55;23.98;;;;;;;;;;5039123;28;20084;-73
2021/11/11 02:07:30;;;;;;;71.03;23.52;;;;;;;;;;5049834;28;20659;-73
2021/11/11 02:09:57;;;;;;;61.83;23.20;;;;;;;;;;5067100;28;20076;-73
2021/11/11 02:12:25;;;;;;;66.07;23.98;;;;;;;;;;5063131;28;20172;-73
2021/11/11 02:14:52;;;;;;;64.22;22.85;;;;;;;;;;5066701;28;20095;-73
2021/11/11 02:17:25;;;;;;;63.63;23.00;;;;;;;;;;5067263;28;20412;-73
2021/11/11 02:19:59;;;;;;;61.13;23.13;;;;;;;;;;5036913;28;20132;-73
2021/11/11 02:22:27;;;;;;;60.83;23.35;;;;;;;;;;5047175;28;20045;-73
2021/11/11 02:24:54;;;;;;;57.20;20.33;;;;;;;;;;5046392;28;20068;-73
2021/11/11 02:27:22;;;;;;;58.92;20.98;;;;;;;;;;5048407;28;20060;-73
2021/11/11 02:29:49;;;;;;;59.58;21.40;;;;;;;;;;5047785;28;20576;-73
2021/11/11 02:32:17;;;;;;;66.40;24.05;;;;;;;;;;5060863;28;20139;-73
2021/11/11 02:34:44;;;;;;;61.60;23.52;;;;;;;;;;5037700;28;20132;-73
2021/11/11 02:37:12;;;;;;;67.57;24.48;;;;;;;;;;5047320;28;20152;-73
2021/11/11 02:39:39;;;;;;;62.08;22.30;;;;;;;;;;5057589;28;20094;-73
2021/11/11 02:42:07;;;;;;;68.63;22.52;;;;;;;;;;5062232;28;20857;-73
2021/11/11 02:44:42;;;;;;;72.22;23.13;;;;;;;;;;5056415;28;20072;-73
2021/11/11 02:47:09;;;;;;;62.90;22.70;;;;;;;;;;5055510;28;20527;-73
2021/11/11 02:49:36;;;;;;;65.22;22.27;;;;;;;;;;5065749;28;20098;-73
2021/11/11 02:52:05;;;;;;;63.55;21.98;;;;;;;;;;5066672;28;20231;-73
2021/11/11 02:54:39;;;;;;;62.17;22.02;;;;;;;;;;5038591;28;20164;-73
2021/11/11 02:57:41;;;;;;;67.63;23.05;;;;;;;;;;5047938;28;20136;-73
2021/11/11 03:00:11;;;;;;;71.38;24.23;;;;;;;;;;4983645;28;20464;-73
2021/11/11 03:02:40;;;;;;;74.28;23.58;;;;;;;;;;5051824;28;20067;-73
2021/11/11 03:05:09;;;;;;;77.32;27.00;;;;;;;;;;5065778;28;20139;-73
2021/11/11 03:07:36;;;;;;;71.32;23.20;;;;;;;;;;5066751;28;20083;-73
2021/11/11 03:10:04;;;;;;;68.97;22.98;;;;;;;;;;5047946;28;20186;-74
2021/11/11 03:12:32;;;;;;;72.03;24.73;;;;;;;;;;5066856;28;20737;-74
2021/11/11 03:14:59;;;;;;;74.45;24.33;;;;;;;;;;5060535;28;20515;-74
2021/11/11 03:17:26;;;;;;;72.28;24.40;;;;;;;;;;5065974;28;20110;-75
2021/11/11 03:19:53;;;;;;;73.55;24.02;;;;;;;;;;5038900;28;20133;-75
2021/11/11 03:22:20;;;;;;;92.97;26.23;;;;;;;;;;5046446;28;20087;-75
2021/11/11 03:24:49;;;;;;;81.03;25.63;;;;;;;;;;5054151;28;20418;-75
2021/11/11 03:27:17;;;;;;;84.43;26.70;;;;;;;;;;5066357;28;20048;-75
2021/11/11 03:29:45;;;;;;;87.03;27.70;;;;;;;;;;5055805;28;20141;-74
2021/11/11 03:32:12;;;;;;;95.03;27.80;;;;;;;;;;5066568;28;20098;-74
2021/11/11 03:34:40;;;;;;;97.32;28.73;;;;;;;;;;5058630;28;20056;-74
2021/11/11 03:37:08;;;;;;;98.80;28.20;;;;;;;;;;5046247;28;20091;-74
2021/11/11 03:39:36;;;;;;;100.13;30.23;;;;;;;;;;5052388;28;20045;-74
2021/11/11 03:42:04;;;;;;;93.30;29.13;;;;;;;;;;5065590;28;20044;-74
2021/11/11 03:44:31;;;;;;;96.28;31.27;;;;;;;;;;5059985;28;20076;-74
2021/11/11 03:46:59;;;;;;;114.55;31.08;;;;;;;;;;5048584;28;20147;-74
2021/11/11 03:49:27;;;;;;;118.53;31.13;;;;;;;;;;5045515;28;20165;-74
2021/11/11 03:51:54;;;;;;;110.85;31.95;;;;;;;;;;5044720;28;20219;-74
2021/11/11 03:54:24;;;;;;;117.57;32.08;;;;;;;;;;5045865;28;20057;-74
2021/11/11 03:56:54;;;;;;;115.43;31.02;;;;;;;;;;5058747;28;20147;-74
2021/11/11 03:59:22;;;;;;;105.68;30.95;;;;;;;;;;5061055;28;20167;-73
2021/11/11 04:01:49;;;;;;;115.90;33.05;;;;;;;;;;5056142;28;20129;-73
2021/11/11 04:04:16;;;;;;;119.72;33.65;;;;;;;;;;5064925;28;20098;-73
2021/11/11 04:06:44;;;;;;;120.70;32.28;;;;;;;;;;5065936;28;20151;-73
2021/11/11 04:09:11;;;;;;;120.80;33.53;;;;;;;;;;5065206;28;20080;-74
2021/11/11 04:11:38;;;;;;;115.80;32.45;;;;;;;;;;5065781;28;20224;-74
2021/11/11 04:14:05;;;;;;;124.05;32.80;;;;;;;;;;5065166;28;20060;-74
2021/11/11 04:16:33;;;;;;;106.63;30.88;;;;;;;;;;5065502;28;20120;-73
2021/11/11 04:19:01;;;;;;;122.22;34.55;;;;;;;;;;5054847;28;20051;-73
2021/11/11 04:21:28;;;;;;;130.02;33.28;;;;;;;;;;5044447;28;20441;-73
2021/11/11 04:23:55;;;;;;;132.80;34.95;;;;;;;;;;5046215;28;20909;-71
2021/11/11 04:26:26;;;;;;;119.50;34.35;;;;;;;;;;5065527;28;20083;-73
2021/11/11 04:34:08;;;;;;;137.25;34.75;;;;;;;;;;5061818;28;20716;-73
2021/11/11 04:39:38;;;;;;;116.95;32.60;;;;;;;;;;5065413;28;20135;-74
2021/11/11 04:45:05;;;;;;;126.40;31.80;;;;;;;;;;5049731;28;20135;-74
2021/11/11 05:03:38;;;;;;;131.23;29.92;;;;;;;;;;5068311;28;20075;-74
2021/11/11 05:06:06;;;;;;;131.07;31.20;;;;;;;;;;5031345;28;20704;-73
2021/11/11 05:08:33;;;;;;;128.02;32.38;;;;;;;;;;5048678;28;20103;-74
2021/11/11 05:11:01;;;;;;;135.38;30.90;;;;;;;;;;5068625;28;20140;-73
2021/11/11 05:13:29;;;;;;;136.48;32.80;;;;;;;;;;5068302;28;20060;-73
2021/11/11 05:15:56;;;;;;;126.13;30.63;;;;;;;;;;5050467;28;20057;-73
2021/11/11 05:18:23;;;;;;;131.23;29.60;;;;;;;;;;5050660;28;20163;-73
2021/11/11 05:20:50;;;;;;;124.03;29.88;;;;;;;;;;5051168;28;20525;-73
2021/11/11 05:23:18;;;;;;;131.77;29.42;;;;;;;;;;5056790;28;20143;-74
2021/11/11 05:25:46;;;;;;;152.20;30.33;;;;;;;;;;5065260;28;20497;-74
2021/11/11 05:28:16;;;;;;;147.75;32.20;;;;;;;;;;5050892;28;20500;-74
2021/11/11 05:30:44;;;;;;;147.82;30.80;;;;;;;;;;5049525;28;20148;-74
2021/11/11 05:33:11;;;;;;;151.05;29.55;;;;;;;;;;5068142;28;20068;-74
2021/11/11 05:35:39;;;;;;;157.30;30.77;;;;;;;;;;5045590;28;20076;-74
2021/11/11 05:38:06;;;;;;;150.82;29.98;;;;;;;;;;5067845;28;20659;-74
2021/11/11 05:40:34;;;;;;;163.75;30.15;;;;;;;;;;5048895;28;20144;-74
2021/11/11 05:43:01;;;;;;;134.07;29.80;;;;;;;;;;5068227;28;20151;-74
2021/11/11 05:45:28;;;;;;;150.55;29.20;;;;;;;;;;5058026;28;20041;-74
2021/11/11 05:47:55;;;;;;;142.48;27.63;;;;;;;;;;5047994;28;20057;-74
2021/11/11 05:50:23;;;;;;;164.55;29.60;;;;;;;;;;5048017;28;20056;-74
2021/11/11 05:52:50;;;;;;;155.50;28.83;;;;;;;;;;5047555;28;20135;-74
2021/11/11 05:55:17;;;;;;;141.23;26.77;;;;;;;;;;5055854;28;20521;-74
2021/11/11 05:57:45;;;;;;;165.07;30.75;;;;;;;;;;5067563;28;20136;-74
2021/11/11 06:00:14;;;;;;;152.20;26.98;;;;;;;;;;5041891;28;20132;-74
2021/11/11 06:02:43;;;;;;;149.75;29.45;;;;;;;;;;5065322;28;20164;-74
2021/11/11 06:05:11;;;;;;;170.20;28.50;;;;;;;;;;5044823;28;20052;-74
2021/11/11 06:07:38;;;;;;;169.85;30.48;;;;;;;;;;5067889;28;20094;-74
2021/11/11 06:10:06;;;;;;;154.82;29.45;;;;;;;;;;5066722;28;20131;-74
2021/11/11 06:12:34;;;;;;;163.57;28.65;;;;;;;;;;5067822;28;20114;-73
2021/11/11 06:15:01;;;;;;;127.80;26.50;;;;;;;;;;5062182;28;20386;-74
2021/11/11 06:17:28;;;;;;;133.23;29.63;;;;;;;;;;5067917;28;20175;-73
2021/11/11 06:19:56;;;;;;;150.50;27.65;;;;;;;;;;5040145;28;20080;-74
2021/11/11 06:22:23;;;;;;;154.13;26.90;;;;;;;;;;5047789;28;20191;-74
2021/11/11 06:24:50;;;;;;;109.88;25.75;;;;;;;;;;5052211;28;20132;-74
2021/11/11 06:27:18;;;;;;;124.13;26.85;;;;;;;;;;5047705;28;20124;-74
2021/11/11 06:29:45;;;;;;;127.82;25.58;;;;;;;;;;5058578;28;20052;-74
2021/11/11 06:32:13;;;;;;;112.70;27.17;;;;;;;;;;5060063;28;20110;-73
2021/11/11 06:35:00;;;;;;;106.20;26.75;;;;;;;;;;5055261;28;20572;-74
2021/11/11 06:37:27;;;;;;;93.05;22.73;;;;;;;;;;5066729;28;20090;-74
2021/11/11 06:39:54;;;;;;;124.55;25.88;;;;;;;;;;5066654;28;20561;-74
2021/11/11 06:42:22;;;;;;;115.07;24.45;;;;;;;;;;5059126;28;20139;-74
2021/11/11 06:44:49;;;;;;;93.22;24.75;;;;;;;;;;5062716;28;20045;-74
2021/11/11 06:47:16;;;;;;;115.22;25.60;;;;;;;;;;5047174;28;20477;-73
2021/11/11 06:49:43;;;;;;;116.78;26.67;;;;;;;;;;5054581;28;20088;-74
2021/11/11 06:52:11;;;;;;;101.30;24.35;;;;;;;;;;5067106;28;20056;-74
2021/11/11 06:54:40;;;;;;;121.68;27.95;;;;;;;;;;5059934;28;20128;-74
2021/11/11 06:57:07;;;;;;;106.07;23.98;;;;;;;;;;5047324;28;20542;-73
2021/11/11 06:59:34;;;;;;;105.95;24.63;;;;;;;;;;5062720;28;20496;-74
2021/11/11 07:02:02;;;;;;;94.68;24.17;;;;;;;;;;5048629;28;20052;-74
2021/11/11 07:04:30;;;;;;;98.68;23.67;;;;;;;;;;5066332;28;20094;-74
2021/11/11 07:06:57;;;;;;;105.10;25.90;;;;;;;;;;5066871;28;20246;-74
2021/11/11 07:09:24;;;;;;;98.47;23.92;;;;;;;;;;5048552;28;20083;-74
2021/11/11 07:11:51;;;;;;;99.15;26.55;;;;;;;;;;5066387;28;20090;-74
2021/11/11 07:14:18;;;;;;;83.28;24.83;;;;;;;;;;5062602;28;20565;-73
2021/11/11 07:16:46;;;;;;;90.38;24.25;;;;;;;;;;5046719;28;20080;-73
2021/11/11 07:19:13;;;;;;;98.80;23.65;;;;;;;;;;5048129;28;20056;-73
2021/11/11 07:21:40;;;;;;;99.47;24.35;;;;;;;;;;5066796;28;20079;-74
2021/11/11 07:24:07;;;;;;;102.03;24.55;;;;;;;;;;5045765;28;20160;-74
2021/11/11 07:26:34;;;;;;;109.55;24.90;;;;;;;;;;5046501;28;20079;-74
2021/11/11 07:29:02;;;;;;;90.30;25.67;;;;;;;;;;5048364;28;20139;-74
2021/11/11 07:31:29;;;;;;;93.30;25.08;;;;;;;;;;5060573;28;20143;-74
2021/11/11 07:33:57;;;;;;;88.93;24.67;;;;;;;;;;5047573;28;20412;-74
2021/11/11 07:36:25;;;;;;;89.82;23.88;;;;;;;;;;5048355;28;20056;-74
2021/11/11 07:38:53;;;;;;;88.60;24.13;;;;;;;;;;5066105;28;20052;-74
2021/11/11 07:41:20;;;;;;;78.57;21.58;;;;;;;;;;5041267;28;20045;-74
2021/11/11 07:43:48;;;;;;;90.40;23.70;;;;;;;;;;5046152;28;20567;-74
2021/11/11 07:46:16;;;;;;;82.43;22.83;;;;;;;;;;5037272;28;20148;-74
2021/11/11 07:48:43;;;;;;;87.28;21.75;;;;;;;;;;5045862;28;20056;-74
2021/11/11 07:51:11;;;;;;;86.60;22.27;;;;;;;;;;5046305;28;20481;-74
2021/11/11 07:53:38;;;;;;;89.55;22.20;;;;;;;;;;5045507;28;20179;-74
2021/11/11 07:56:06;;;;;;;82.88;21.90;;;;;;;;;;5046605;28;20576;-74
2021/11/11 07:58:33;;;;;;;84.82;23.05;;;;;;;;;;5065353;28;20191;-74
2021/11/11 08:01:00;;;;;;;74.07;21.25;;;;;;;;;;5065433;28;20140;-74
2021/11/11 08:03:27;;;;;;;84.90;22.98;;;;;;;;;;5066004;28;20060;-74
2021/11/11 08:05:55;;;;;;;91.60;23.30;;;;;;;;;;5045892;28;20095;-74
2021/11/11 08:08:22;;;;;;;87.53;22.40;;;;;;;;;;5047061;28;20048;-74
2021/11/11 08:10:49;;;;;;;84.65;22.85;;;;;;;;;;5064916;28;20079;-73
2021/11/11 08:13:17;;;;;;;70.32;20.38;;;;;;;;;;5047123;28;20080;-74
2021/11/11 08:15:44;;;;;;;83.38;22.27;;;;;;;;;;5046312;28;20052;-74
2021/11/11 08:18:11;;;;;;;85.20;21.50;;;;;;;;;;5047993;28;20053;-74
2021/11/11 08:20:38;;;;;;;76.75;20.85;;;;;;;;;;5032471;28;20127;-74
2021/11/11 08:23:06;;;;;;;85.80;21.90;;;;;;;;;;5046741;28;20045;-74
2021/11/11 08:25:34;;;;;;;80.85;22.45;;;;;;;;;;5048136;28;20048;-73
2021/11/11 08:28:01;;;;;;;68.95;20.70;;;;;;;;;;5069351;28;20151;-72
2021/11/11 08:30:29;;;;;;;67.20;20.30;;;;;;;;;;5051863;28;20531;-73
2021/11/11 08:32:56;;;;;;;76.10;21.35;;;;;;;;;;5047353;28;20061;-73
2021/11/11 08:35:24;;;;;;;64.80;19.98;;;;;;;;;;5065857;28;20139;-73
2021/11/11 08:37:52;;;;;;;75.25;19.67;;;;;;;;;;5069744;28;20131;-73
2021/11/11 08:40:19;;;;;;;67.97;21.60;;;;;;;;;;5051014;28;20135;-74
2021/11/11 08:42:48;;;;;;;65.60;19.83;;;;;;;;;;5069741;28;20087;-73
2021/11/11 08:45:16;;;;;;;80.30;20.27;;;;;;;;;;5057940;28;20083;-74
2021/11/11 08:47:44;;;;;;;69.22;18.45;;;;;;;;;;5048144;28;20640;-73
2021/11/11 08:50:12;;;;;;;70.30;18.73;;;;;;;;;;5060740;28;20056;-74
2021/11/11 08:52:44;;;;;;;66.15;18.63;;;;;;;;;;5051543;28;20076;-74
2021/11/11 08:55:21;;;;;;;63.53;19.42;;;;;;;;;;5041603;28;20615;-73
2021/11/11 08:57:49;;;;;;;70.60;18.85;;;;;;;;;;5069490;28;20454;-74
2021/11/11 09:00:18;;;;;;;83.20;21.20;;;;;;;;;;5056620;28;20773;-74
2021/11/11 09:02:46;;;;;;;79.20;20.27;;;;;;;;;;5066948;28;20053;-75
2021/11/11 09:05:14;;;;;;;76.30;20.20;;;;;;;;;;5064924;28;20074;-75
2021/11/11 09:07:43;;;;;;;82.55;20.52;;;;;;;;;;5069435;28;20139;-74
2021/11/11 09:10:11;;;;;;;77.40;20.98;;;;;;;;;;5050578;28;20110;-74
2021/11/11 09:12:38;;;;;;;79.80;20.42;;;;;;;;;;5068949;28;20211;-74
2021/11/11 09:15:07;;;;;;;79.00;20.02;;;;;;;;;;5066791;28;20072;-74
2021/11/11 09:17:34;;;;;;;77.93;20.73;;;;;;;;;;5069149;28;20140;-74
2021/11/11 09:20:02;;;;;;;79.35;20.50;;;;;;;;;;5058095;28;20767;-75
2021/11/11 09:22:31;;;;;;;71.70;19.67;;;;;;;;;;5047415;28;20132;-74
2021/11/11 09:24:59;;;;;;;77.43;21.20;;;;;;;;;;5050538;28;20140;-75
2021/11/11 09:27:26;;;;;;;75.18;19.67;;;;;;;;;;5058557;28;20084;-74
2021/11/11 09:29:55;;;;;;;86.47;21.30;;;;;;;;;;5068347;28;20147;-74
2021/11/11 09:32:22;;;;;;;81.75;20.20;;;;;;;;;;5068547;28;20156;-74
2021/11/11 09:34:49;;;;;;;87.88;21.90;;;;;;;;;;5065629;28;20147;-75
2021/11/11 09:37:16;;;;;;;81.57;21.75;;;;;;;;;;5068909;28;20099;-75
2021/11/11 09:39:43;;;;;;;92.07;21.95;;;;;;;;;;5068139;28;20079;-75
2021/11/11 09:42:10;;;;;;;87.65;21.35;;;;;;;;;;5068085;28;20052;-75
2021/11/11 09:44:38;;;;;;;88.72;21.67;;;;;;;;;;5062875;28;20132;-74
2021/11/11 09:47:06;;;;;;;92.65;22.02;;;;;;;;;;5051162;28;20044;-75
2021/11/11 09:49:33;;;;;;;94.35;22.95;;;;;;;;;;5054470;28;20052;-74
2021/11/11 09:52:01;;;;;;;93.45;23.77;;;;;;;;;;5068348;28;20048;-74
2021/11/11 09:59:43;;;;;;;92.22;23.50;;;;;;;;;;5055423;28;20084;-74
2021/11/11 10:02:10;;;;;;;105.88;26.25;;;;;;;;;;5068333;28;20074;-74
2021/11/11 10:04:38;;;;;;;105.68;25.98;;;;;;;;;;5062795;28;20041;-75
2021/11/11 10:07:07;;;;;;;102.72;24.77;;;;;;;;;;5048125;28;20053;-75
2021/11/11 10:09:39;;;;;;;103.50;25.73;;;;;;;;;;5054219;28;20131;-74
2021/11/11 10:12:06;;;;;;;88.82;22.67;;;;;;;;;;5067785;28;20143;-75
2021/11/11 10:14:36;;;;;;;91.60;23.33;;;;;;;;;;5064785;28;20070;-75
2021/11/11 10:17:06;;;;;;;98.40;25.33;;;;;;;;;;5068118;28;20059;-74
2021/11/11 10:19:35;;;;;;;94.63;25.67;;;;;;;;;;5060638;28;20075;-74
2021/11/11 10:22:32;;;;;;;96.60;26.02;;;;;;;;;;5046064;28;20505;-75
2021/11/11 10:25:00;;;;;;;95.82;25.38;;;;;;;;;;5054751;28;20554;-74
2021/11/11 10:27:29;;;;;;;97.82;26.17;;;;;;;;;;5067071;28;20143;-75
2021/11/11 10:30:04;;;;;;;94.32;24.52;;;;;;;;;;5067375;28;20729;-74
2021/11/11 10:32:38;;;;;;;87.30;25.63;;;;;;;;;;5065896;28;20088;-75
2021/11/11 10:35:10;;;;;;;96.72;26.55;;;;;;;;;;5059583;28;20048;-75
2021/11/11 10:37:39;;;;;;;89.38;25.80;;;;;;;;;;5046217;28;20780;-74
2021/11/11 10:40:07;;;;;;;85.93;24.15;;;;;;;;;;5055808;28;20157;-75
2021/11/11 10:42:35;;;;;;;85.53;23.58;;;;;;;;;;5049448;28;20091;-75
2021/11/11 10:45:04;;;;;;;99.22;23.92;;;;;;;;;;5060204;28;20127;-74
2021/11/11 10:47:33;;;;;;;97.60;24.50;;;;;;;;;;5048486;28;20804;-74
2021/11/11 10:50:02;;;;;;;93.35;25.13;;;;;;;;;;5066799;28;20723;-75
2021/11/11 10:52:30;;;;;;;87.78;23.35;;;;;;;;;;5039117;28;20558;-75
2021/11/11 10:54:57;;;;;;;94.22;24.92;;;;;;;;;;5052608;28;20163;-74
2021/11/11 10:57:35;;;;;;;90.78;22.90;;;;;;;;;;5049378;28;20139;-74
2021/11/11 11:00:07;;;;;;;87.72;22.33;;;;;;;;;;5038406;28;20371;-74
2021/11/11 11:02:49;;;;;;;90.88;24.90;;;;;;;;;;5051419;28;20578;-75
2021/11/11 11:05:17;;;;;;;101.80;24.35;;;;;;;;;;5040312;28;20764;-75
2021/11/11 11:07:48;;;;;;;84.50;24.33;;;;;;;;;;5047076;28;20562;-75
2021/11/11 11:10:17;;;;;;;87.55;22.75;;;;;;;;;;5058470;28;20060;-74
2021/11/11 11:12:45;;;;;;;98.35;23.88;;;;;;;;;;5066877;28;20143;-74
2021/11/11 11:15:30;;;;;;;95.22;25.52;;;;;;;;;;5059197;28;20664;-74
2021/11/11 11:17:58;;;;;;;85.45;22.48;;;;;;;;;;5045677;28;20048;-74
2021/11/11 11:20:27;;;;;;;87.35;22.48;;;;;;;;;;5047408;28;20136;-74
2021/11/11 11:23:11;;;;;;;86.35;23.48;;;;;;;;;;5044880;28;20057;-75
2021/11/11 11:25:39;;;;;;;71.30;20.75;;;;;;;;;;5053123;28;20045;-75
2021/11/11 11:28:26;;;;;;;85.57;22.63;;;;;;;;;;5046781;28;20079;-74
2021/11/11 11:30:55;;;;;;;73.38;20.02;;;;;;;;;;5063920;28;20109;-74
2021/11/11 11:33:32;;;;;;;74.85;20.90;;;;;;;;;;5048395;28;20156;-75
2021/11/11 11:36:00;;;;;;;74.60;22.98;;;;;;;;;;5033451;28;20130;-74
2021/11/11 11:38:28;;;;;;;67.47;21.50;;;;;;;;;;5046518;28;20164;-74
2021/11/11 11:40:56;;;;;;;64.75;20.33;;;;;;;;;;5063945;28;20061;-74
2021/11/11 11:43:28;;;;;;;73.25;22.17;;;;;;;;;;5047717;28;20551;-74
2021/11/11 11:46:09;;;;;;;64.07;19.73;;;;;;;;;;5053983;28;20198;-74
2021/11/11 11:48:37;;;;;;;66.45;19.55;;;;;;;;;;5045453;28;20673;-74
2021/11/11 11:51:07;;;;;;;72.15;21.55;;;;;;;;;;5047921;28;20139;-74
2021/11/11 11:53:40;;;;;;;61.33;20.20;;;;;;;;;;5048249;28;20102;-74
2021/11/11 11:56:21;;;;;;;65.20;20.02;;;;;;;;;;5059869;28;20578;-74
2021/11/11 11:58:57;;;;;;;61.95;17.63;;;;;;;;;;5065840;28;20078;-74
2021/11/11 12:01:38;;;;;;;65.82;19.63;;;;;;;;;;5053038;28;20083;-75
2021/11/11 12:04:41;;;;;;;66.60;20.70;;;;;;;;;;5057005;28;20413;-74
2021/11/11 12:13:11;;;;;;;64.38;19.35;;;;;;;;;;5051372;28;20080;-74
2021/11/11 12:41:07;;;;;;;51.53;17.75;;;;;;;;;;5065570;28;20076;-74
2021/11/11 12:43:34;;;;;;;56.00;18.20;;;;;;;;;;5046332;28;20075;-74
2021/11/11 12:46:01;;;;;;;52.38;18.25;;;;;;;;;;5048216;28;20095;-74
2021/11/11 12:48:30;;;;;;;52.60;16.77;;;;;;;;;;5065512;28;20048;-74
2021/11/11 12:50:58;;;;;;;43.20;16.70;;;;;;;;;;5047650;28;20053;-74
2021/11/11 12:53:27;;;;;;;44.53;15.55;;;;;;;;;;5057652;28;20167;-74
2021/11/11 12:55:58;;;;;;;48.85;16.58;;;;;;;;;;5063839;28;20091;-74
2021/11/11 12:58:36;;;;;;;41.60;16.35;;;;;;;;;;5046348;28;20921;-74
2021/11/11 13:01:12;;;;;;;62.40;18.50;;;;;;;;;;5049379;28;20148;-74
2021/11/11 13:03:49;;;;;;;42.63;15.80;;;;;;;;;;5064754;28;20080;-74
2021/11/11 13:06:35;;;;;;;47.65;15.75;;;;;;;;;;5027394;28;20050;-74
2021/11/11 13:09:11;;;;;;;42.63;17.23;;;;;;;;;;5047244;28;20477;-74
2021/11/11 13:11:41;;;;;;;42.47;15.50;;;;;;;;;;5068749;28;20056;-74
2021/11/11 13:14:08;;;;;;;39.72;15.85;;;;;;;;;;5053924;28;20143;-74
2021/11/11 13:16:36;;;;;;;47.40;16.75;;;;;;;;;;5067747;28;20569;-75
2021/11/11 13:19:04;;;;;;;50.97;18.45;;;;;;;;;;5049848;28;20056;-75
2021/11/11 13:21:50;;;;;;;40.25;16.45;;;;;;;;;;5050874;28;20123;-75
2021/11/11 13:24:24;;;;;;;;;;;;;;;;;;5050643;28;20053;-75
2021/11/11 14:00:36;;;;;;;55.65;20.70;;;;;;;;;;5048165;28;20164;-75
2021/11/11 15:04:39;;;;;;;55.35;18.45;;;;;;;;;;5063967;28;20163;-75
2021/11/11 15:14:35;;;;;;;60.60;21.98;;;;;;;;;;5060037;28;20049;-75
2021/11/11 16:04:08;;;;;;;73.55;25.42;;;;;;;;;;5062049;28;20040;-75
2021/11/11 16:25:56;;;;;;;92.25;27.65;;;;;;;;;;5046557;28;20080;-77
2021/11/11 16:28:23;;;;;;;86.13;26.35;;;;;;;;;;5049010;28;20111;-77
2021/11/11 16:30:51;;;;;;;96.85;28.35;;;;;;;;;;5065908;28;20247;-76
2021/11/11 16:33:18;;;;;;;89.45;27.13;;;;;;;;;;5066133;28;20080;-76
2021/11/11 16:35:45;;;;;;;86.13;25.42;;;;;;;;;;5035972;28;20080;-76
2021/11/11 16:38:13;;;;;;;86.50;25.58;;;;;;;;;;5048287;28;20128;-76
2021/11/11 16:40:40;;;;;;;81.65;25.33;;;;;;;;;;5045978;28;20503;-76
2021/11/11 16:43:09;;;;;;;75.35;25.67;;;;;;;;;;5044414;28;20080;-76
2021/11/11 16:45:36;;;;;;;79.72;26.92;;;;;;;;;;5049015;28;20088;-76
2021/11/11 16:48:04;;;;;;;74.82;23.48;;;;;;;;;;5064070;28;20084;-76
2021/11/11 16:50:31;;;;;;;86.60;25.65;;;;;;;;;;5036354;28;20772;-76
2021/11/11 16:52:58;;;;;;;83.22;25.63;;;;;;;;;;5048429;28;20060;-76
2021/11/11 16:55:25;;;;;;;82.18;25.60;;;;;;;;;;5063088;28;20532;-76
2021/11/11 16:57:53;;;;;;;72.82;24.83;;;;;;;;;;5067866;28;20135;-76
2021/11/11 17:00:20;;;;;;;70.22;25.65;;;;;;;;;;5051024;28;20111;-76
2021/11/11 17:02:48;;;;;;;72.60;25.30;;;;;;;;;;5067434;28;20087;-76
2021/11/11 17:05:18;;;;;;;70.38;26.00;;;;;;;;;;5054047;28;20401;-76
2021/11/11 17:07:45;;;;;;;69.55;25.17;;;;;;;;;;5047957;28;20088;-76
2021/11/11 17:10:12;;;;;;;82.03;25.67;;;;;;;;;;5050684;28;20131;-76
2021/11/11 17:12:39;;;;;;;73.95;25.35;;;;;;;;;;5069168;28;20133;-75
2021/11/11 17:15:08;;;;;;;77.80;26.42;;;;;;;;;;5067397;28;20242;-76
2021/11/11 17:17:36;;;;;;;78.75;27.17;;;;;;;;;;5069231;28;20487;-76
2021/11/11 17:20:05;;;;;;;76.22;24.70;;;;;;;;;;5057295;28;20155;-76
2021/11/11 17:22:36;;;;;;;79.40;27.67;;;;;;;;;;5049240;28;20047;-76
2021/11/11 17:25:25;;;;;;;76.45;26.02;;;;;;;;;;5047441;28;20107;-76
2021/11/11 17:28:05;;;;;;;81.28;27.58;;;;;;;;;;5049092;28;20095;-75
2021/11/11 17:30:32;;;;;;;83.45;28.80;;;;;;;;;;5067310;28;20132;-76
2021/11/11 17:33:00;;;;;;;78.97;28.33;;;;;;;;;;5068739;28;20485;-76
2021/11/11 17:35:28;;;;;;;95.15;29.13;;;;;;;;;;5068117;28;20752;-76
2021/11/11 17:37:55;;;;;;;78.72;29.27;;;;;;;;;;5068553;28;20056;-76
2021/11/11 17:40:23;;;;;;;90.05;30.42;;;;;;;;;;5068077;28;20055;-76
2021/11/11 17:42:51;;;;;;;96.03;31.83;;;;;;;;;;5068635;28;20070;-76
2021/11/11 17:45:27;;;;;;;104.22;31.40;;;;;;;;;;5049361;28;20078;-76
2021/11/11 17:47:56;;;;;;;96.78;30.67;;;;;;;;;;5050333;28;20083;-76
2021/11/11 17:50:37;;;;;;;94.35;30.67;;;;;;;;;;5067991;28;20506;-76
2021/11/11 17:53:13;;;;;;;98.60;31.17;;;;;;;;;;5067823;28;20082;-76
2021/11/11 17:55:45;;;;;;;105.32;31.20;;;;;;;;;;5052304;28;20063;-76
2021/11/11 17:58:17;;;;;;;103.60;30.65;;;;;;;;;;5047560;28;20355;-76
2021/11/11 18:00:46;;;;;;;108.25;32.00;;;;;;;;;;5060804;28;20131;-76
2021/11/11 18:03:17;;;;;;;112.35;32.45;;;;;;;;;;5068283;28;20141;-75
2021/11/11 18:05:45;;;;;;;104.85;31.45;;;;;;;;;;5053531;28;20080;-75
2021/11/11 18:08:31;;;;;;;98.22;31.65;;;;;;;;;;5049765;28;20092;-75
2021/11/11 18:10:59;;;;;;;106.82;31.95;;;;;;;;;;5050421;28;20084;-76
2021/11/11 18:13:29;;;;;;;97.88;31.90;;;;;;;;;;5069055;28;20056;-75
2021/11/11 18:16:07;;;;;;;94.65;31.98;;;;;;;;;;5052587;28;20144;-75
2021/11/11 18:18:35;;;;;;;98.72;32.28;;;;;;;;;;5068331;28;20056;-76